Time;durP1;ratioP1;P1;durP2;ratioP2;P2;SDS_P1;SDS_P2;PMS_P1;PMS_P2;Temp;Humidity;BMP_temperature;BMP_pressure;BME280_temperature;BME280_humidity;BME280_pressure;Samples;Min_cycle;Max_cycle;Signal;HPM_P1;HPM_P2
2023/03/12 00:00:51;;;;;;;0.00;0.00;;;;;;;;;;4921571;29;20130;-94
2023/03/12 00:03:17;;;;;;;0.00;0.00;;;;;;;;;;4922689;29;20050;-94
2023/03/12 00:05:44;;;;;;;0.00;0.00;;;;;;;;;;4921345;29;20095;-94
2023/03/12 00:08:10;;;;;;;0.00;0.00;;;;;;;;;;4922916;29;20067;-93
2023/03/12 00:10:38;;;;;;;0.00;0.00;;;;;;;;;;4921009;29;20184;-94
2023/03/12 00:13:04;;;;;;;0.00;0.00;;;;;;;;;;4919855;29;20162;-93
2023/03/12 00:15:30;;;;;;;0.00;0.00;;;;;;;;;;4920550;29;20047;-93
2023/03/12 00:17:56;;;;;;;0.00;0.00;;;;;;;;;;4920858;29;20068;-94
2023/03/12 00:20:22;;;;;;;0.00;0.00;;;;;;;;;;4922086;29;20047;-93
2023/03/12 00:22:51;;;;;;;0.55;0.32;;;;;;;;;;4929818;29;20072;-94
2023/03/12 00:25:17;;;;;;;0.00;0.00;;;;;;;;;;4920743;29;20048;-95
2023/03/12 00:27:43;;;;;;;0.00;0.00;;;;;;;;;;4920257;29;20303;-95
2023/03/12 00:30:10;;;;;;;0.00;0.00;;;;;;;;;;4919528;29;20075;-92
2023/03/12 00:32:36;;;;;;;0.00;0.00;;;;;;;;;;4919287;29;20036;-92
2023/03/12 00:35:03;;;;;;;0.00;0.00;;;;;;;;;;4919489;29;20050;-93
2023/03/12 00:37:29;;;;;;;0.00;0.00;;;;;;;;;;4919349;29;20074;-94
2023/03/12 00:39:55;;;;;;;0.00;0.00;;;;;;;;;;4919855;29;20083;-93
2023/03/12 00:42:21;;;;;;;0.00;0.00;;;;;;;;;;4919746;29;20043;-91
2023/03/12 00:44:47;;;;;;;0.00;0.00;;;;;;;;;;4919330;29;20050;-92
2023/03/12 00:47:13;;;;;;;0.15;0.13;;;;;;;;;;4918847;29;20044;-92
2023/03/12 00:49:39;;;;;;;0.00;0.00;;;;;;;;;;4919009;29;20062;-91
2023/03/12 00:52:05;;;;;;;0.00;0.00;;;;;;;;;;4921528;29;20050;-94
2023/03/12 00:54:31;;;;;;;0.00;0.00;;;;;;;;;;4922980;29;20035;-92
2023/03/12 00:56:57;;;;;;;0.00;0.00;;;;;;;;;;4922582;29;20131;-92
2023/03/12 00:59:23;;;;;;;0.20;0.10;;;;;;;;;;4922940;29;20091;-92
2023/03/12 01:01:49;;;;;;;0.00;0.00;;;;;;;;;;4922636;29;20059;-93
2023/03/12 01:04:16;;;;;;;0.00;0.00;;;;;;;;;;4923225;29;20499;-92
2023/03/12 01:06:42;;;;;;;0.00;0.00;;;;;;;;;;4923064;29;20130;-91
2023/03/12 01:09:08;;;;;;;0.00;0.00;;;;;;;;;;4923122;29;20066;-91
2023/03/12 01:11:35;;;;;;;0.00;0.00;;;;;;;;;;4922551;29;20484;-93
2023/03/12 01:14:01;;;;;;;0.00;0.00;;;;;;;;;;4922983;29;20059;-91
2023/03/12 01:16:29;;;;;;;0.00;0.00;;;;;;;;;;4922404;29;20036;-94
2023/03/12 01:18:59;;;;;;;0.00;0.00;;;;;;;;;;4922492;29;20107;-92
2023/03/12 01:21:26;;;;;;;0.00;0.00;;;;;;;;;;4924871;28;20554;-91
2023/03/12 01:23:52;;;;;;;0.00;0.00;;;;;;;;;;4957602;29;20051;-93
2023/03/12 01:26:18;;;;;;;0.00;0.00;;;;;;;;;;4944498;28;20425;-91
2023/03/12 01:28:44;;;;;;;0.00;0.00;;;;;;;;;;4944876;28;20043;-93
2023/03/12 01:31:11;;;;;;;0.00;0.00;;;;;;;;;;4960306;28;20506;-94
2023/03/12 01:33:38;;;;;;;0.00;0.00;;;;;;;;;;4960674;28;20479;-92
2023/03/12 01:36:04;;;;;;;0.00;0.00;;;;;;;;;;4944233;28;20050;-92
2023/03/12 01:38:30;;;;;;;0.00;0.00;;;;;;;;;;4960770;28;20046;-94
2023/03/12 01:40:56;;;;;;;0.00;0.00;;;;;;;;;;4944944;28;20101;-93
2023/03/12 01:43:33;;;;;;;0.00;0.00;;;;;;;;;;4944933;28;20078;-93
2023/03/12 01:46:17;;;;;;;0.00;0.00;;;;;;;;;;4946097;28;20129;-93
2023/03/12 01:48:56;;;;;;;0.00;0.00;;;;;;;;;;4944944;28;20546;-94
2023/03/12 01:51:24;;;;;;;0.00;0.00;;;;;;;;;;4944846;28;20129;-92
2023/03/12 01:53:51;;;;;;;0.00;0.00;;;;;;;;;;4944878;28;20082;-92
2023/03/12 01:56:18;;;;;;;0.15;0.15;;;;;;;;;;4944194;28;20053;-95
2023/03/12 01:58:46;;;;;;;0.00;0.00;;;;;;;;;;4944388;28;20495;-95
2023/03/12 02:01:14;;;;;;;0.00;0.00;;;;;;;;;;4960220;28;20409;-93
2023/03/12 02:03:40;;;;;;;0.00;0.00;;;;;;;;;;4943704;28;20054;-94
2023/03/12 02:06:09;;;;;;;0.00;0.00;;;;;;;;;;4960198;28;20050;-94
2023/03/12 02:08:37;;;;;;;0.00;0.00;;;;;;;;;;4943922;28;20134;-92
2023/03/12 02:11:03;;;;;;;0.00;0.00;;;;;;;;;;4945211;28;20098;-94
2023/03/12 02:13:29;;;;;;;0.00;0.00;;;;;;;;;;4960385;28;20043;-95
2023/03/12 02:15:55;;;;;;;0.00;0.00;;;;;;;;;;4960300;28;20114;-95
2023/03/12 02:18:21;;;;;;;0.00;0.00;;;;;;;;;;4944806;28;20043;-96
2023/03/12 02:20:50;;;;;;;0.00;0.00;;;;;;;;;;4959990;28;20137;-94
2023/03/12 02:23:20;;;;;;;0.00;0.00;;;;;;;;;;4943820;28;20055;-93
2023/03/12 02:25:48;;;;;;;0.00;0.00;;;;;;;;;;4944104;28;20089;-93
2023/03/12 02:28:17;;;;;;;0.00;0.00;;;;;;;;;;4959858;28;20490;-91
2023/03/12 02:30:45;;;;;;;0.00;0.00;;;;;;;;;;4944008;28;20051;-93
2023/03/12 02:33:11;;;;;;;0.00;0.00;;;;;;;;;;4943808;28;20106;-92
2023/03/12 02:35:38;;;;;;;0.00;0.00;;;;;;;;;;4943858;28;20075;-93
2023/03/12 02:38:24;;;;;;;0.00;0.00;;;;;;;;;;4943403;28;20062;-93
2023/03/12 02:40:50;;;;;;;0.00;0.00;;;;;;;;;;4943488;28;20046;-94
2023/03/12 02:43:20;;;;;;;0.00;0.00;;;;;;;;;;4959644;28;20043;-92
2023/03/12 02:45:46;;;;;;;0.00;0.00;;;;;;;;;;4959761;28;20516;-93
2023/03/12 02:48:12;;;;;;;0.55;0.38;;;;;;;;;;4959073;28;20042;-92
2023/03/12 02:50:38;;;;;;;0.00;0.00;;;;;;;;;;4959119;28;20043;-92
2023/03/12 02:53:04;;;;;;;0.00;0.00;;;;;;;;;;4959579;28;20050;-92
2023/03/12 02:55:30;;;;;;;0.00;0.00;;;;;;;;;;4943329;28;20050;-92
2023/03/12 02:57:56;;;;;;;0.00;0.00;;;;;;;;;;4943388;28;20050;-94
2023/03/12 03:00:22;;;;;;;0.00;0.00;;;;;;;;;;4943071;28;20058;-94
2023/03/12 03:02:48;;;;;;;0.00;0.00;;;;;;;;;;4943108;28;20078;-93
2023/03/12 03:05:15;;;;;;;0.00;0.00;;;;;;;;;;4942972;28;20137;-93
2023/03/12 03:07:41;;;;;;;0.00;0.00;;;;;;;;;;4942989;28;20118;-94
2023/03/12 03:10:07;;;;;;;0.00;0.00;;;;;;;;;;4959455;28;20138;-93
2023/03/12 03:12:34;;;;;;;0.00;0.00;;;;;;;;;;4958976;28;20034;-92
2023/03/12 03:15:01;;;;;;;0.00;0.00;;;;;;;;;;4942794;28;20043;-92
2023/03/12 03:17:27;;;;;;;0.00;0.00;;;;;;;;;;4943403;28;20113;-93
2023/03/12 03:19:53;;;;;;;0.00;0.00;;;;;;;;;;4943270;28;20042;-93
2023/03/12 03:22:20;;;;;;;0.00;0.00;;;;;;;;;;4942969;28;20141;-94
2023/03/12 03:24:46;;;;;;;0.00;0.00;;;;;;;;;;4958976;28;20061;-94
2023/03/12 03:27:13;;;;;;;0.00;0.00;;;;;;;;;;4942724;28;20047;-95
2023/03/12 03:29:39;;;;;;;0.00;0.00;;;;;;;;;;4959099;28;20039;-96
2023/03/12 03:32:05;;;;;;;0.00;0.00;;;;;;;;;;4958757;28;20569;-94
2023/03/12 03:34:32;;;;;;;0.00;0.00;;;;;;;;;;4942329;28;20494;-92
2023/03/12 03:36:58;;;;;;;0.00;0.00;;;;;;;;;;4959453;28;20038;-94
2023/03/12 03:39:24;;;;;;;0.00;0.00;;;;;;;;;;4944494;28;20043;-96
2023/03/12 03:41:51;;;;;;;0.00;0.00;;;;;;;;;;4942856;28;20082;-95
2023/03/12 03:44:17;;;;;;;0.00;0.00;;;;;;;;;;4942746;28;20086;-93
2023/03/12 03:46:43;;;;;;;0.00;0.00;;;;;;;;;;4943061;28;20397;-93
2023/03/12 03:49:09;;;;;;;0.00;0.00;;;;;;;;;;4958730;28;20046;-93
2023/03/12 03:51:35;;;;;;;0.52;0.20;;;;;;;;;;4958568;28;20082;-91
2023/03/12 03:54:01;;;;;;;0.00;0.00;;;;;;;;;;4942975;28;20390;-92
2023/03/12 03:56:28;;;;;;;0.00;0.00;;;;;;;;;;4943205;28;20039;-93
2023/03/12 03:58:54;;;;;;;0.00;0.00;;;;;;;;;;4958238;28;20110;-93
2023/03/12 04:01:20;;;;;;;0.38;0.32;;;;;;;;;;4944175;28;20050;-94
2023/03/12 04:03:46;;;;;;;0.00;0.00;;;;;;;;;;4972577;28;20034;-94
2023/03/12 04:06:12;;;;;;;0.00;0.00;;;;;;;;;;4985346;28;20057;-94
2023/03/12 04:11:48;;;;;;;0.00;0.00;;;;;;;;;;4982554;28;20069;-94
2023/03/12 04:14:14;;;;;;;0.00;0.00;;;;;;;;;;4959900;28;20049;-92
2023/03/12 04:16:40;;;;;;;0.00;0.00;;;;;;;;;;4961791;28;20097;-95
2023/03/12 04:19:06;;;;;;;0.00;0.00;;;;;;;;;;4959002;28;20039;-93
2023/03/12 04:21:32;;;;;;;0.20;0.10;;;;;;;;;;4971227;28;20039;-93
2023/03/12 04:23:58;;;;;;;0.00;0.00;;;;;;;;;;4977329;28;20519;-94
2023/03/12 04:26:24;;;;;;;0.00;0.00;;;;;;;;;;4993146;28;20046;-94
2023/03/12 04:28:50;;;;;;;0.00;0.00;;;;;;;;;;4993096;28;20050;-93
2023/03/12 04:36:38;;;;;;;0.00;0.00;;;;;;;;;;5096632;23;20050;-95
2023/03/12 04:39:07;;;;;;;0.00;0.00;;;;;;;;;;4978412;28;20126;-94
2023/03/12 04:41:34;;;;;;;0.00;0.00;;;;;;;;;;4979141;28;20181;-94
2023/03/12 04:44:20;;;;;;;0.00;0.00;;;;;;;;;;4995851;28;20393;-93
2023/03/12 04:46:50;;;;;;;0.00;0.00;;;;;;;;;;5029576;28;20064;-94
2023/03/12 04:49:16;;;;;;;0.00;0.00;;;;;;;;;;5002942;28;20060;-94
2023/03/12 04:51:43;;;;;;;0.10;0.00;;;;;;;;;;4997027;28;20110;-96
2023/03/12 04:54:09;;;;;;;0.00;0.00;;;;;;;;;;4996772;28;20486;-93
2023/03/12 04:56:35;;;;;;;0.00;0.00;;;;;;;;;;4980530;28;20034;-91
2023/03/12 04:59:01;;;;;;;0.00;0.00;;;;;;;;;;4980580;28;20042;-92
2023/03/12 05:01:32;;;;;;;0.00;0.00;;;;;;;;;;4980489;28;20042;-93
2023/03/12 05:03:58;;;;;;;0.00;0.00;;;;;;;;;;4996975;28;20081;-94
2023/03/12 05:06:29;;;;;;;0.00;0.00;;;;;;;;;;4983186;28;20058;-94
2023/03/12 05:08:55;;;;;;;0.00;0.00;;;;;;;;;;5002138;28;20084;-95
2023/03/12 05:32:08;;;;;;;0.00;0.00;;;;;;;;;;5134808;22;20470;-95
2023/03/12 05:34:34;;;;;;;0.00;0.00;;;;;;;;;;4960667;28;20058;-93
2023/03/12 05:37:00;;;;;;;0.00;0.00;;;;;;;;;;4977674;28;20094;-93
2023/03/12 05:39:26;;;;;;;0.00;0.00;;;;;;;;;;4980516;28;20426;-95
2023/03/12 05:41:55;;;;;;;0.00;0.00;;;;;;;;;;4980436;28;20046;-93
2023/03/12 05:44:22;;;;;;;0.00;0.00;;;;;;;;;;4982126;28;20117;-93
2023/03/12 05:46:50;;;;;;;0.00;0.00;;;;;;;;;;4981868;28;20053;-94
2023/03/12 05:49:16;;;;;;;0.00;0.00;;;;;;;;;;4984047;28;20430;-94
2023/03/12 05:51:42;;;;;;;0.00;0.00;;;;;;;;;;4967057;28;20034;-95
2023/03/12 05:54:09;;;;;;;0.00;0.00;;;;;;;;;;4981584;28;20113;-94
2023/03/12 05:56:36;;;;;;;0.00;0.00;;;;;;;;;;4984852;28;20053;-92
2023/03/12 05:59:02;;;;;;;0.00;0.00;;;;;;;;;;4972852;28;20042;-92
2023/03/12 06:01:29;;;;;;;0.00;0.00;;;;;;;;;;4965378;28;20057;-94
2023/03/12 06:03:55;;;;;;;3.38;2.13;;;;;;;;;;4983206;28;20106;-92
2023/03/12 06:06:22;;;;;;;0.00;0.00;;;;;;;;;;4982896;28;20553;-96
2023/03/12 06:08:48;;;;;;;0.00;0.00;;;;;;;;;;4986364;28;20042;-93
2023/03/12 06:11:17;;;;;;;0.00;0.00;;;;;;;;;;4968268;28;20061;-93
2023/03/12 06:13:43;;;;;;;0.00;0.00;;;;;;;;;;4981945;28;20043;-94
2023/03/12 06:16:18;;;;;;;0.00;0.00;;;;;;;;;;4967571;28;20486;-95
2023/03/12 06:18:44;;;;;;;0.00;0.00;;;;;;;;;;4968297;28;20030;-92
2023/03/12 06:21:17;;;;;;;0.00;0.00;;;;;;;;;;4984937;28;20061;-94
2023/03/12 06:23:46;;;;;;;1.13;0.20;;;;;;;;;;4987491;28;20042;-94
2023/03/12 06:26:13;;;;;;;0.00;0.00;;;;;;;;;;4968875;28;20042;-93
2023/03/12 06:28:47;;;;;;;0.00;0.00;;;;;;;;;;4986790;28;20053;-94
2023/03/12 06:31:13;;;;;;;0.00;0.00;;;;;;;;;;4991166;28;20548;-94
2023/03/12 06:33:39;;;;;;;0.00;0.00;;;;;;;;;;4983102;28;20486;-95
2023/03/12 06:36:09;;;;;;;0.00;0.00;;;;;;;;;;4967158;28;20042;-95
2023/03/12 06:38:35;;;;;;;0.00;0.00;;;;;;;;;;4986169;28;20397;-94
2023/03/12 06:41:03;;;;;;;0.00;0.00;;;;;;;;;;4964640;28;20446;-95
2023/03/12 06:46:16;;;;;;;0.00;0.00;;;;;;;;;;5581193;23;20046;-93
2023/03/12 06:54:21;;;;;;;0.10;0.08;;;;;;;;;;6081715;23;20021;-91
2023/03/12 06:56:48;;;;;;;0.00;0.00;;;;;;;;;;4949521;29;20203;-93
2023/03/12 07:07:24;;;;;;;0.00;0.00;;;;;;;;;;5412037;23;20096;-94
2023/03/12 07:12:53;;;;;;;0.00;0.00;;;;;;;;;;5369003;23;20062;-90
2023/03/12 07:15:23;;;;;;;0.00;0.00;;;;;;;;;;5168021;23;20059;-91
2023/03/12 07:18:08;;;;;;;0.00;0.00;;;;;;;;;;4979935;28;20039;-92
2023/03/12 07:21:06;;;;;;;;;;;;;;;;;;;;;
2023/03/12 07:23:44;;;;;;;0.00;0.00;;;;;;;;;;4995846;28;20094;-93
2023/03/12 07:26:11;;;;;;;0.10;0.10;;;;;;;;;;5073174;23;20061;-93
2023/03/12 07:31:28;;;;;;;0.00;0.00;;;;;;;;;;4957265;29;20047;-92
2023/03/12 07:34:04;;;;;;;0.00;0.00;;;;;;;;;;5012175;28;20053;-94
2023/03/12 07:36:36;;;;;;;0.00;0.00;;;;;;;;;;4999445;28;20045;-93
2023/03/12 07:39:03;;;;;;;0.00;0.00;;;;;;;;;;5013805;28;20056;-94
2023/03/12 07:41:32;;;;;;;0.00;0.00;;;;;;;;;;5004926;28;20500;-93
2023/03/12 07:44:06;;;;;;;0.00;0.00;;;;;;;;;;4988116;28;20042;-94
2023/03/12 07:46:35;;;;;;;0.00;0.00;;;;;;;;;;5006646;28;20037;-93
2023/03/12 07:49:01;;;;;;;0.00;0.00;;;;;;;;;;5015631;28;20057;-93
2023/03/12 07:51:31;;;;;;;0.10;0.10;;;;;;;;;;5031251;28;20060;-93
2023/03/12 07:53:59;;;;;;;0.00;0.00;;;;;;;;;;5013792;28;20029;-94
2023/03/12 07:56:25;;;;;;;0.43;0.28;;;;;;;;;;5003150;28;20034;-92
2023/03/12 07:58:58;;;;;;;0.00;0.00;;;;;;;;;;5018523;28;20029;-90
2023/03/12 08:01:30;;;;;;;0.00;0.00;;;;;;;;;;5035656;28;20073;-90
2023/03/12 08:03:58;;;;;;;0.00;0.00;;;;;;;;;;5301328;22;20130;-92
2023/03/12 08:06:28;;;;;;;0.00;0.00;;;;;;;;;;4989769;28;20466;-93
2023/03/12 08:08:55;;;;;;;0.00;0.00;;;;;;;;;;4998145;28;20049;-93
2023/03/12 08:11:21;;;;;;;0.05;0.05;;;;;;;;;;5000306;28;20042;-92
2023/03/12 08:13:47;;;;;;;0.00;0.00;;;;;;;;;;4983250;28;20033;-93
2023/03/12 08:16:13;;;;;;;0.00;0.00;;;;;;;;;;4986328;28;20418;-94
2023/03/12 08:18:41;;;;;;;0.00;0.00;;;;;;;;;;4977936;28;20065;-94
2023/03/12 08:21:08;;;;;;;0.00;0.00;;;;;;;;;;4977284;28;20050;-93
2023/03/12 08:23:34;;;;;;;0.00;0.00;;;;;;;;;;4976976;28;20068;-93
2023/03/12 08:26:00;;;;;;;0.00;0.00;;;;;;;;;;4976648;28;20047;-93
2023/03/12 08:28:26;;;;;;;0.00;0.00;;;;;;;;;;4961385;28;20048;-93
2023/03/12 08:30:53;;;;;;;0.00;0.00;;;;;;;;;;4978839;28;20046;-95
2023/03/12 08:33:20;;;;;;;0.00;0.00;;;;;;;;;;4960721;28;20104;-94
2023/03/12 08:35:46;;;;;;;0.00;0.00;;;;;;;;;;4961495;28;20494;-92
2023/03/12 08:38:12;;;;;;;0.00;0.00;;;;;;;;;;4961392;28;20042;-92
2023/03/12 08:40:38;;;;;;;0.00;0.00;;;;;;;;;;4978090;28;20426;-92
2023/03/12 08:43:06;;;;;;;0.00;0.00;;;;;;;;;;4978922;28;20038;-93
2023/03/12 08:45:34;;;;;;;0.00;0.00;;;;;;;;;;4965399;28;20042;-95
2023/03/12 08:48:00;;;;;;;0.00;0.00;;;;;;;;;;4962706;28;20042;-93
2023/03/12 08:50:28;;;;;;;0.00;0.00;;;;;;;;;;4978447;28;20046;-93
2023/03/12 08:52:55;;;;;;;0.25;0.10;;;;;;;;;;4976344;28;20524;-92
2023/03/12 08:55:20;;;;;;;0.17;0.10;;;;;;;;;;4960614;28;20038;-92
2023/03/12 08:57:47;;;;;;;0.00;0.00;;;;;;;;;;4997115;28;20092;-91
2023/03/12 09:00:14;;;;;;;0.17;0.05;;;;;;;;;;4976332;28;20097;-92
2023/03/12 09:02:42;;;;;;;0.00;0.00;;;;;;;;;;4960577;28;20053;-91
2023/03/12 09:05:08;;;;;;;0.00;0.00;;;;;;;;;;4976512;28;20058;-92
2023/03/12 09:07:34;;;;;;;0.00;0.00;;;;;;;;;;4960096;28;20046;-92
2023/03/12 09:10:00;;;;;;;0.00;0.00;;;;;;;;;;4961283;28;20069;-92
2023/03/12 09:12:26;;;;;;;0.00;0.00;;;;;;;;;;4977416;28;20478;-91
2023/03/12 09:14:52;;;;;;;0.00;0.00;;;;;;;;;;4964533;28;20042;-91
2023/03/12 09:17:18;;;;;;;0.52;0.10;;;;;;;;;;4979813;28;20038;-93
2023/03/12 09:19:44;;;;;;;0.28;0.22;;;;;;;;;;4963918;28;20393;-92
2023/03/12 09:22:11;;;;;;;0.08;0.08;;;;;;;;;;4963898;28;20042;-92
2023/03/12 09:24:37;;;;;;;0.00;0.00;;;;;;;;;;4963613;28;20412;-93
2023/03/12 09:27:03;;;;;;;0.00;0.00;;;;;;;;;;4980299;28;20042;-92
2023/03/12 09:29:30;;;;;;;0.00;0.00;;;;;;;;;;4979962;28;20046;-90
2023/03/12 09:31:55;;;;;;;0.10;0.10;;;;;;;;;;4979259;28;20039;-90
2023/03/12 09:34:21;;;;;;;0.22;0.20;;;;;;;;;;4978959;28;20556;-92
2023/03/12 09:36:48;;;;;;;0.00;0.00;;;;;;;;;;4980619;28;20121;-91
2023/03/12 09:39:14;;;;;;;0.57;0.20;;;;;;;;;;4979762;28;20035;-92
2023/03/12 09:41:42;;;;;;;0.47;0.28;;;;;;;;;;4979545;28;20065;-91
2023/03/12 09:44:17;;;;;;;0.65;0.30;;;;;;;;;;4987672;28;20045;-91
2023/03/12 09:46:49;;;;;;;0.00;0.00;;;;;;;;;;4982313;28;20042;-92
2023/03/12 09:49:19;;;;;;;0.00;0.00;;;;;;;;;;4965974;28;20453;-91
2023/03/12 09:51:48;;;;;;;0.00;0.00;;;;;;;;;;4963261;28;20042;-91
2023/03/12 09:54:23;;;;;;;0.00;0.00;;;;;;;;;;4963002;28;20493;-91
2023/03/12 09:56:50;;;;;;;0.40;0.20;;;;;;;;;;4979149;28;20050;-93
2023/03/12 09:59:16;;;;;;;0.57;0.20;;;;;;;;;;4962994;28;20034;-92
2023/03/12 10:01:51;;;;;;;0.00;0.00;;;;;;;;;;4962902;28;20136;-91
2023/03/12 10:04:23;;;;;;;0.00;0.00;;;;;;;;;;4979828;28;20462;-91
2023/03/12 10:06:55;;;;;;;0.00;0.00;;;;;;;;;;4966498;28;20061;-91
2023/03/12 10:09:32;;;;;;;0.00;0.00;;;;;;;;;;4976154;28;20042;-89
2023/03/12 10:12:02;;;;;;;0.00;0.00;;;;;;;;;;4984301;28;20047;-90
2023/03/12 10:14:50;;;;;;;0.10;0.00;;;;;;;;;;4979074;28;20451;-90
2023/03/12 10:17:23;;;;;;;0.00;0.00;;;;;;;;;;4962512;28;20470;-91
2023/03/12 10:19:55;;;;;;;0.20;0.10;;;;;;;;;;4995379;28;20042;-92
2023/03/12 10:22:46;;;;;;;0.00;0.00;;;;;;;;;;4978789;28;20132;-91
2023/03/12 10:25:16;;;;;;;0.00;0.00;;;;;;;;;;4961977;28;20073;-91
2023/03/12 10:27:42;;;;;;;0.00;0.00;;;;;;;;;;4962612;28;20068;-92
2023/03/12 10:30:16;;;;;;;0.00;0.00;;;;;;;;;;4978298;28;20078;-91
2023/03/12 10:32:45;;;;;;;0.00;0.00;;;;;;;;;;4978849;28;20121;-91
2023/03/12 10:35:17;;;;;;;0.00;0.00;;;;;;;;;;4979113;28;20050;-92
2023/03/12 10:37:46;;;;;;;0.45;0.15;;;;;;;;;;4962750;28;20034;-91
2023/03/12 10:40:16;;;;;;;0.05;0.05;;;;;;;;;;4962374;28;20137;-92
2023/03/12 10:42:42;;;;;;;0.00;0.00;;;;;;;;;;4978377;28;20056;-92
2023/03/12 10:45:08;;;;;;;0.00;0.00;;;;;;;;;;4962458;28;20046;-93
2023/03/12 10:47:39;;;;;;;0.05;0.05;;;;;;;;;;4962157;28;20103;-92
2023/03/12 10:50:12;;;;;;;0.30;0.10;;;;;;;;;;4978900;28;20054;-91
2023/03/12 10:52:39;;;;;;;0.35;0.20;;;;;;;;;;4962402;28;20129;-92
2023/03/12 10:55:13;;;;;;;0.00;0.00;;;;;;;;;;4962576;28;20039;-93
2023/03/12 10:57:40;;;;;;;0.00;0.00;;;;;;;;;;4979351;28;20096;-94
2023/03/12 11:00:10;;;;;;;0.00;0.00;;;;;;;;;;4999820;28;20081;-93
2023/03/12 11:02:42;;;;;;;0.10;0.10;;;;;;;;;;4962289;28;20042;-93
2023/03/12 11:05:19;;;;;;;0.52;0.10;;;;;;;;;;4977889;28;20060;-91
2023/03/12 11:07:45;;;;;;;0.88;0.32;;;;;;;;;;4977832;28;20471;-92
2023/03/12 11:10:13;;;;;;;0.00;0.00;;;;;;;;;;4963252;28;20118;-92
2023/03/12 11:12:40;;;;;;;0.15;0.10;;;;;;;;;;4977444;28;20092;-93
2023/03/12 11:15:24;;;;;;;0.00;0.00;;;;;;;;;;4978051;28;20058;-91
2023/03/12 11:17:51;;;;;;;0.00;0.00;;;;;;;;;;4960954;28;20097;-92
2023/03/12 11:20:23;;;;;;;0.00;0.00;;;;;;;;;;4961594;28;20046;-92
2023/03/12 11:22:49;;;;;;;0.38;0.17;;;;;;;;;;4977206;28;20093;-92
2023/03/12 11:25:21;;;;;;;0.00;0.00;;;;;;;;;;4961560;28;20050;-92
2023/03/12 11:27:58;;;;;;;0.00;0.00;;;;;;;;;;4961582;28;20429;-92
2023/03/12 11:30:29;;;;;;;0.00;0.00;;;;;;;;;;4961408;28;20054;-92
2023/03/12 11:32:56;;;;;;;1.85;0.30;;;;;;;;;;4977361;28;20042;-92
2023/03/12 11:35:32;;;;;;;0.32;0.15;;;;;;;;;;4961024;28;20081;-92
2023/03/12 11:37:58;;;;;;;;;;;;;;;;;;4961546;28;20393;-92
2023/03/12 11:40:43;;;;;;;0.00;0.00;;;;;;;;;;4977496;28;19917;-94
2023/03/12 11:43:24;;;;;;;0.00;0.00;;;;;;;;;;4962119;28;20061;-93
2023/03/12 11:45:56;;;;;;;0.00;0.00;;;;;;;;;;4961543;28;20043;-92
2023/03/12 11:48:33;;;;;;;0.00;0.00;;;;;;;;;;4961578;28;20505;-92
2023/03/12 11:50:59;;;;;;;0.25;0.13;;;;;;;;;;4961619;28;20093;-93
2023/03/12 11:53:35;;;;;;;0.00;0.00;;;;;;;;;;4961504;28;20035;-92
2023/03/12 11:56:09;;;;;;;0.00;0.00;;;;;;;;;;4977315;28;20038;-93
2023/03/12 11:58:48;;;;;;;0.00;0.00;;;;;;;;;;4961474;28;20045;-93
2023/03/12 12:01:17;;;;;;;0.00;0.00;;;;;;;;;;4978127;28;20132;-93
2023/03/12 12:03:46;;;;;;;0.00;0.00;;;;;;;;;;4960815;28;20038;-93
2023/03/12 12:06:15;;;;;;;0.00;0.00;;;;;;;;;;4961020;28;20043;-94
2023/03/12 12:08:56;;;;;;;0.00;0.00;;;;;;;;;;4992940;28;20370;-94
2023/03/12 12:11:31;;;;;;;0.00;0.00;;;;;;;;;;4990308;28;20038;-93
2023/03/12 12:13:57;;;;;;;0.00;0.00;;;;;;;;;;4984322;28;20371;-92
2023/03/12 12:16:41;;;;;;;0.00;0.00;;;;;;;;;;4960473;28;20034;-93
2023/03/12 12:19:17;;;;;;;0.00;0.00;;;;;;;;;;4975177;28;20076;-93
2023/03/12 12:21:46;;;;;;;0.00;0.00;;;;;;;;;;4976829;28;20097;-93
2023/03/12 12:24:18;;;;;;;0.22;0.20;;;;;;;;;;4976879;28;20046;-91
2023/03/12 12:26:52;;;;;;;0.00;0.00;;;;;;;;;;4976354;28;20512;-92
2023/03/12 12:29:18;;;;;;;0.00;0.00;;;;;;;;;;4960772;28;20042;-92
2023/03/12 12:31:54;;;;;;;0.40;0.40;;;;;;;;;;4993010;28;20046;-93
2023/03/12 12:34:26;;;;;;;0.13;0.10;;;;;;;;;;4961170;28;20061;-94
2023/03/12 12:36:54;;;;;;;0.00;0.00;;;;;;;;;;5009528;28;20039;-95
2023/03/12 12:39:36;;;;;;;0.00;0.00;;;;;;;;;;5009475;28;20042;-91
2023/03/12 12:42:05;;;;;;;0.00;0.00;;;;;;;;;;5009839;28;20053;-92
2023/03/12 12:44:47;;;;;;;0.00;0.00;;;;;;;;;;5009091;28;20393;-92
2023/03/12 12:47:17;;;;;;;0.00;0.00;;;;;;;;;;5008395;28;20046;-91
2023/03/12 12:49:43;;;;;;;0.00;0.00;;;;;;;;;;4960293;28;20050;-94
2023/03/12 12:52:12;;;;;;;0.00;0.00;;;;;;;;;;4992593;28;20056;-91
2023/03/12 12:54:45;;;;;;;0.00;0.00;;;;;;;;;;5008843;28;20042;-91
2023/03/12 12:57:13;;;;;;;0.00;0.00;;;;;;;;;;5009062;28;20038;-91
2023/03/12 12:59:58;;;;;;;0.00;0.00;;;;;;;;;;5009356;28;20196;-92
2023/03/12 13:02:26;;;;;;;0.00;0.00;;;;;;;;;;4993190;28;20050;-91
2023/03/12 13:04:56;;;;;;;0.13;0.00;;;;;;;;;;4959842;28;20398;-92
2023/03/12 13:07:21;;;;;;;0.00;0.00;;;;;;;;;;4992668;28;20390;-92
2023/03/12 13:09:50;;;;;;;0.00;0.00;;;;;;;;;;4992467;28;20046;-90
2023/03/12 13:12:45;;;;;;;0.00;0.00;;;;;;;;;;4976429;28;20046;-92
2023/03/12 13:15:31;;;;;;;0.00;0.00;;;;;;;;;;4955426;28;20379;-91
2023/03/12 13:18:08;;;;;;;0.00;0.00;;;;;;;;;;5008569;28;20038;-92
2023/03/12 13:20:45;;;;;;;0.00;0.00;;;;;;;;;;4992268;28;20042;-92
2023/03/12 13:23:25;;;;;;;0.10;0.10;;;;;;;;;;5008528;28;20038;-92
2023/03/12 13:26:06;;;;;;;0.70;0.03;;;;;;;;;;4992694;28;20057;-92
2023/03/12 13:28:39;;;;;;;0.00;0.00;;;;;;;;;;4996697;28;20046;-90
2023/03/12 13:31:14;;;;;;;0.00;0.00;;;;;;;;;;4982852;28;20046;-91
2023/03/12 13:33:47;;;;;;;0.00;0.00;;;;;;;;;;5012560;28;20046;-90
2023/03/12 13:36:22;;;;;;;0.00;0.00;;;;;;;;;;5007944;28;20041;-92
2023/03/12 13:39:17;;;;;;;0.00;0.00;;;;;;;;;;4976193;28;20126;-91
2023/03/12 13:41:50;;;;;;;0.00;0.00;;;;;;;;;;5010035;28;20042;-91
2023/03/12 13:44:19;;;;;;;0.00;0.00;;;;;;;;;;4975830;28;20058;-91
2023/03/12 13:46:46;;;;;;;0.00;0.00;;;;;;;;;;5008439;28;20049;-93
2023/03/12 13:49:13;;;;;;;0.00;0.00;;;;;;;;;;4991899;28;20100;-92
2023/03/12 13:51:43;;;;;;;0.00;0.00;;;;;;;;;;4991976;28;20112;-92
2023/03/12 13:54:17;;;;;;;0.00;0.00;;;;;;;;;;5008305;28;20125;-91
2023/03/12 13:56:53;;;;;;;0.00;0.00;;;;;;;;;;5008531;28;20441;-93
2023/03/12 13:59:20;;;;;;;0.00;0.00;;;;;;;;;;5009257;28;20034;-92
2023/03/12 14:01:48;;;;;;;0.00;0.00;;;;;;;;;;5011897;28;20046;-91
2023/03/12 14:04:17;;;;;;;0.10;0.10;;;;;;;;;;5011378;28;20061;-90
2023/03/12 14:06:55;;;;;;;0.03;0.03;;;;;;;;;;5011464;28;20050;-91
2023/03/12 14:09:44;;;;;;;1.00;0.13;;;;;;;;;;5011651;28;20042;-90
2023/03/12 14:12:22;;;;;;;0.00;0.00;;;;;;;;;;5011365;28;20047;-91
2023/03/12 14:14:51;;;;;;;0.00;0.00;;;;;;;;;;4994914;28;20082;-90
2023/03/12 14:17:19;;;;;;;0.00;0.00;;;;;;;;;;4994822;28;20039;-90
2023/03/12 14:19:50;;;;;;;0.00;0.00;;;;;;;;;;4994598;28;20049;-91
2023/03/12 14:22:21;;;;;;;0.00;0.00;;;;;;;;;;5011219;28;20042;-91
2023/03/12 14:24:50;;;;;;;0.00;0.00;;;;;;;;;;4963153;28;20078;-92
2023/03/12 14:27:27;;;;;;;0.00;0.00;;;;;;;;;;5011806;28;20038;-93
2023/03/12 14:29:56;;;;;;;0.00;0.00;;;;;;;;;;4978570;28;20137;-91
2023/03/12 14:32:23;;;;;;;0.00;0.00;;;;;;;;;;4994566;28;20042;-91
2023/03/12 14:34:53;;;;;;;0.00;0.00;;;;;;;;;;4994920;28;20482;-93
2023/03/12 14:37:23;;;;;;;0.00;0.00;;;;;;;;;;5011245;28;20049;-93
2023/03/12 14:39:58;;;;;;;0.00;0.00;;;;;;;;;;5010881;28;20049;-92
2023/03/12 14:42:29;;;;;;;0.00;0.00;;;;;;;;;;5011230;28;20047;-91
2023/03/12 14:44:59;;;;;;;0.00;0.00;;;;;;;;;;5010640;28;20044;-92
2023/03/12 14:47:25;;;;;;;0.00;0.00;;;;;;;;;;5011090;28;20130;-91
2023/03/12 14:49:51;;;;;;;0.00;0.00;;;;;;;;;;4994427;28;20077;-92
2023/03/12 14:52:25;;;;;;;0.00;0.00;;;;;;;;;;5011063;28;20073;-90
2023/03/12 14:55:03;;;;;;;0.00;0.00;;;;;;;;;;5010267;28;20042;-92
2023/03/12 14:57:29;;;;;;;0.00;0.00;;;;;;;;;;4961663;28;20545;-89
2023/03/12 14:59:56;;;;;;;0.00;0.00;;;;;;;;;;4993662;28;20125;-90
2023/03/12 15:02:22;;;;;;;0.00;0.00;;;;;;;;;;5010673;28;20060;-89
2023/03/12 15:04:49;;;;;;;0.00;0.00;;;;;;;;;;5009935;28;20409;-90
2023/03/12 15:07:18;;;;;;;0.00;0.00;;;;;;;;;;5010173;28;20042;-90
2023/03/12 15:09:45;;;;;;;0.00;0.00;;;;;;;;;;5009948;28;20085;-89
2023/03/12 15:12:25;;;;;;;0.00;0.00;;;;;;;;;;5009941;28;20057;-90
2023/03/12 15:14:54;;;;;;;0.00;0.00;;;;;;;;;;4993719;28;20433;-89
2023/03/12 15:17:21;;;;;;;0.00;0.00;;;;;;;;;;5010537;28;20098;-90
2023/03/12 15:19:48;;;;;;;0.00;0.00;;;;;;;;;;4993491;28;20049;-89
2023/03/12 15:22:19;;;;;;;0.00;0.00;;;;;;;;;;5009916;28;20066;-90
2023/03/12 15:24:46;;;;;;;0.00;0.00;;;;;;;;;;4977325;28;20049;-90
2023/03/12 15:27:19;;;;;;;0.00;0.00;;;;;;;;;;5009801;28;20105;-89
2023/03/12 15:29:45;;;;;;;0.00;0.00;;;;;;;;;;5009598;28;20042;-90
2023/03/12 15:32:14;;;;;;;0.00;0.00;;;;;;;;;;5009690;28;20042;-89
2023/03/12 15:34:40;;;;;;;0.00;0.00;;;;;;;;;;5009394;28;20066;-89
2023/03/12 15:37:31;;;;;;;0.00;0.00;;;;;;;;;;5009733;28;20077;-91
2023/03/12 15:39:58;;;;;;;0.00;0.00;;;;;;;;;;4977059;28;20050;-90
2023/03/12 15:42:25;;;;;;;0.00;0.00;;;;;;;;;;5009740;28;20042;-90
2023/03/12 15:44:53;;;;;;;0.00;0.00;;;;;;;;;;5009440;28;20073;-91
2023/03/12 15:47:24;;;;;;;0.00;0.00;;;;;;;;;;4960907;28;20405;-92